Latest Weather Observations for Cape Bruny AWS

IDT60901

Issued at 8:21 am EST Friday 23 June 2017 (issued every 10 minutes, with the page automatically refreshed every 10 minutes)

About weather observations | Map of Hobart area stations | Latest observations for Hobart area | Other Formats
Station Details ID: 094198 Name: CAPE BRUNY (CAPE BRUNY) Lat: -43.49 Lon: 147.14 Height: 59.7 m
Data from the previous 72 hours. | See also: Recent months at Cape Bruny AWS
Date/Time
EST
Temp
°C
App
Temp
°C
Dew
Point
°C
Rel
Hum
%
Delta-T
°C
Wind Press
QNH
hPa
Press
MSL
hPa
Rain since
9am
mm
Dir  Spd
km/h
Gust
km/h
Spd
kts
Gust
kts
23/08:00am 11.3 6.0 5.0 65 2.9 NNW 22 39 12 21 1005.4 1005.4 0.0
23/07:30am 10.9 6.0 5.2 68 2.6 NNW 20 35 11 19 1005.9 1005.9 0.0
23/07:00am 11.3 5.7 5.4 67 2.7 NNW 24 33 13 18 1006.3 1006.3 0.0
23/06:30am 10.9 6.0 5.0 67 2.7 NNW 20 39 11 21 1006.7 1006.8 0.0
23/06:00am 10.8 5.4 4.7 66 2.8 NNW 22 32 12 17 1006.9 1007.0 0.0
23/05:30am 11.5 5.6 4.0 60 3.4 NW 24 35 13 19 1007.3 1007.4 0.0
23/05:00am 11.5 2.5 4.3 61 3.3 NW 41 52 22 28 1007.4 1007.5 0.0
23/04:35am 11.4 2.4 4.4 62 3.2 NW 41 59 22 32 1007.3 1007.4 0.0
23/04:30am 11.6 2.2 4.3 61 3.3 NW 43 59 23 32 1007.3 1007.4 0.0
23/04:01am 11.2 4.0 4.9 65 2.9 NW 32 52 17 28 1008.0 1008.1 0.0
23/04:00am 11.1 3.9 5.0 66 2.8 NW 32 48 17 26 1008.1 1008.2 0.0
23/03:55am 10.9 4.5 5.0 67 2.7 NNW 28 46 15 25 1008.2 1008.3 0.0
23/03:30am 8.9 5.8 5.5 79 1.5 NNE 11 15 6 8 1009.0 1009.1 0.0
23/03:00am 9.5 5.3 5.9 78 1.7 NNE 17 26 9 14 1010.0 1010.1 0.0
23/02:30am 9.6 3.5 4.8 72 2.2 NNW 26 39 14 21 1010.3 1010.4 0.0
23/02:00am 8.7 4.8 5.4 80 1.5 N 15 22 8 12 1010.9 1011.0 0.0
23/01:30am 9.6 4.7 5.0 73 2.1 NNW 20 28 11 15 1011.4 1011.5 0.0
23/01:00am 8.5 3.7 4.7 77 1.7 NNW 19 24 10 13 1012.2 1012.3 0.0
23/12:30am 8.2 3.8 4.6 78 1.6 N 17 20 9 11 1012.5 1012.6 0.0
23/12:00am 8.3 4.3 4.9 79 1.5 N 15 20 8 11 1013.0 1013.1 0.0
 
Date/Time
EST
Temp
°C
App
Temp
°C
Dew
Point
°C
Rel
Hum
%
Delta-T
°C
Wind Press
QNH
hPa
Press
MSL
hPa
Rain since
9am
mm
Dir  Spd
km/h
Gust
km/h
Spd
kts
Gust
kts
22/11:30pm 8.5 4.4 4.5 76 1.8 N 15 22 8 12 1013.7 1013.8 0.0
22/11:00pm 8.1 4.3 3.9 75 1.8 N 13 17 7 9 1014.0 1014.1 0.0
22/10:30pm 8.6 4.9 4.2 74 1.9 NNE 13 17 7 9 1014.5 1014.6 0.0
22/10:00pm 8.2 4.4 3.7 73 1.9 N 13 19 7 10 1014.8 1014.9 0.0
22/09:30pm 8.5 3.9 3.9 73 2.0 N 17 26 9 14 1015.1 1015.2 0.0
22/09:00pm 8.6 3.6 3.6 71 2.2 N 19 24 10 13 1015.5 1015.6 0.0
22/08:30pm 8.3 3.7 3.6 72 2.0 N 17 22 9 12 1016.0 1016.1 0.0
22/08:00pm 7.5 3.9 2.8 72 2.0 N 11 17 6 9 1016.4 1016.5 0.0
22/07:30pm 7.4 3.0 2.7 72 2.0 N 15 22 8 12 1016.3 1016.4 0.0
22/07:00pm 7.7 3.3 2.8 71 2.1 NNE 15 20 8 11 1016.6 1016.7 0.0
22/06:30pm 8.2 3.8 2.9 69 2.2 N 15 22 8 12 1017.1 1017.2 0.0
22/06:00pm 8.4 3.2 3.3 70 2.2 NNW 20 28 11 15 1017.3 1017.4 0.0
22/05:30pm 8.1 3.0 3.0 70 2.2 NNW 19 28 10 15 1017.5 1017.6 0.0
22/05:00pm 7.8 3.1 2.9 71 2.1 N 17 22 9 12 1017.9 1018.0 0.0
22/04:30pm 7.9 3.1 2.6 69 2.2 NNW 17 22 9 12 1018.5 1018.6 0.0
22/04:00pm 8.1 4.1 3.0 70 2.2 N 13 20 7 11 1018.7 1018.8 0.0
22/03:30pm 8.4 4.4 2.8 68 2.4 N 13 20 7 11 1019.3 1019.3 0.0
22/03:00pm 8.4 3.6 2.6 67 2.4 N 17 22 9 12 1019.7 1019.7 0.0
22/02:30pm 8.6 3.8 2.4 65 2.6 N 17 28 9 15 1020.0 1020.0 0.0
22/02:00pm 8.1 4.0 2.4 67 2.4 N 13 22 7 12 1020.4 1020.5 0.0
22/01:30pm 9.0 1.7 2.3 63 2.8 WNW 30 39 16 21 1021.1 1021.2 0.0
22/01:00pm 10.3 5.1 2.7 59 3.3 NW 19 28 10 15 1021.5 1021.6 0.0
22/12:30pm 10.1 6.1 2.9 61 3.1 NNW 13 19 7 10 1022.1 1022.2 0.0
22/12:00pm 9.3 4.7 3.7 68 2.4 N 17 22 9 12 1022.6 1022.7 0.0
22/11:30am 8.4 3.2 3.5 71 2.1 N 20 30 11 16 1023.0 1023.1 0.0
22/11:00am 7.4 2.4 3.5 76 1.7 N 19 30 10 16 1023.5 1023.6 0.0
22/10:30am 6.7 2.0 3.3 79 1.4 NNE 17 28 9 15 1024.1 1024.2 0.0
22/10:00am 6.5 1.3 3.3 80 1.3 N 20 28 11 15 1024.5 1024.6 0.0
22/09:30am 5.6 0.0 3.3 85 1.0 N 22 30 12 16 1024.7 1024.8 0.0
22/09:00am 5.1 -0.6 3.1 87 0.8 N 22 28 12 15 1025.0 1025.1 1.2
22/08:30am 4.8 -0.3 3.0 88 0.7 N 19 28 10 15 1025.0 1025.1 1.2
22/08:00am 4.1 -0.7 2.6 90 0.6 N 17 24 9 13 1025.2 1025.3 1.2
22/07:30am 4.2 -1.2 2.6 89 0.6 N 20 28 11 15 1025.4 1025.5 1.2
22/07:00am 4.1 -0.7 2.5 89 0.6 N 17 24 9 13 1025.5 1025.6 1.2
22/06:30am 4.1 -1.1 2.5 89 0.6 N 19 24 10 13 1025.5 1025.6 1.2
22/06:00am 4.1 -0.3 2.5 89 0.6 N 15 22 8 12 1025.8 1025.9 1.2
22/05:30am 3.9 -0.9 2.4 90 0.6 N 17 20 9 11 1025.8 1025.9 1.2
22/05:00am 4.1 -0.7 2.6 90 0.6 N 17 22 9 12 1026.0 1026.1 1.2
22/04:30am 4.2 -0.6 2.6 89 0.6 N 17 22 9 12 1026.2 1026.3 1.2
22/04:00am 4.4 -0.9 2.8 89 0.6 N 20 22 11 12 1026.4 1026.5 1.2
22/03:30am 4.5 -0.6 2.8 89 0.7 N 19 24 10 13 1026.7 1026.8 1.2
22/03:00am 4.1 -0.3 2.5 89 0.6 NNE 15 19 8 10 1027.0 1027.1 1.2
22/02:30am 4.3 -0.5 2.8 90 0.6 NNE 17 20 9 11 1027.4 1027.5 1.2
22/02:00am 4.2 -0.2 2.6 89 0.6 NNE 15 20 8 11 1027.4 1027.5 1.2
22/01:30am 4.3 -0.2 2.3 87 0.8 N 15 19 8 10 1027.5 1027.6 1.2
22/01:00am 4.7 -0.1 2.6 86 0.8 N 17 20 9 11 1027.8 1027.9 1.2
22/12:30am 4.5 -0.4 2.0 84 1.0 N 17 20 9 11 1028.0 1028.1 1.2
22/12:00am 4.8 -0.4 2.3 84 1.0 N 19 22 10 12 1028.0 1028.1 1.2
 
Date/Time
EST
Temp
°C
App
Temp
°C
Dew
Point
°C
Rel
Hum
%
Delta-T
°C
Wind Press
QNH
hPa
Press
MSL
hPa
Rain since
9am
mm
Dir  Spd
km/h
Gust
km/h
Spd
kts
Gust
kts
21/11:30pm 4.6 -0.3 2.0 83 1.0 N 17 20 9 11 1028.3 1028.4 1.2
21/11:00pm 4.9 -0.2 1.0 76 1.5 NNW 17 20 9 11 1028.3 1028.4 1.2
21/10:30pm 4.9 0.0 1.7 80 1.3 N 17 22 9 12 1028.4 1028.5 1.2
21/10:00pm 5.2 -0.1 1.9 79 1.3 N 19 22 10 12 1028.3 1028.4 1.2
21/09:30pm 5.9 0.9 1.6 74 1.7 NW 17 20 9 11 1028.2 1028.3 1.2
21/09:00pm 6.0 0.7 2.1 76 1.6 NW 19 22 10 12 1028.3 1028.4 1.2
21/08:30pm 6.2 0.9 1.9 74 1.7 NNW 19 22 10 12 1028.2 1028.3 1.2
21/08:00pm 7.2 1.4 2.5 72 1.9 NW 22 28 12 15 1028.3 1028.4 1.2
21/07:30pm 7.3 1.6 2.8 73 1.9 NW 22 28 12 15 1028.2 1028.3 1.2
21/07:00pm 6.8 2.0 2.5 74 1.8 NW 17 20 9 11 1027.9 1028.0 1.2
21/06:30pm 7.0 1.7 3.1 76 1.6 WNW 20 28 11 15 1027.7 1027.8 1.2
21/06:00pm 7.5 1.9 3.2 74 1.8 W 22 32 12 17 1027.5 1027.6 1.2
21/05:30pm 7.2 2.4 2.5 72 2.0 NW 17 26 9 14 1027.1 1027.2 1.2
21/05:00pm 7.3 1.7 3.5 77 1.6 WNW 22 26 12 14 1026.9 1027.0 1.0
21/04:30pm 7.5 2.2 3.2 74 1.8 W 20 24 11 13 1026.6 1026.7 1.0
21/04:00pm 7.7 0.3 4.1 78 1.6 WSW 32 41 17 22 1026.5 1026.6 1.0
21/03:30pm 7.8 0.3 3.5 74 1.8 W 32 46 17 25 1026.2 1026.3 1.0
21/03:00pm 7.5 0.4 3.6 76 1.7 WSW 30 39 16 21 1025.9 1026.0 0.8
21/02:30pm 9.4 2.7 3.8 68 2.5 W 28 39 15 21 1025.5 1025.6 0.8
21/02:00pm 9.4 3.1 3.6 67 2.5 W 26 35 14 19 1025.4 1025.5 0.8
21/01:30pm 8.1 0.6 3.2 71 2.1 WSW 32 43 17 23 1025.3 1025.4 0.8
21/01:00pm 9.2 2.0 2.8 64 2.7 W 30 37 16 20 1025.0 1025.1 0.8
21/12:30pm 7.9 -0.7 2.6 69 2.2 W 37 43 20 23 1025.0 1025.1 0.8
21/12:00pm 7.7 -1.6 3.0 72 2.0 W 41 52 22 28 1025.1 1025.2 0.8
21/11:50am 8.6 1.1 3.2 69 2.3 W 32 52 17 28 1025.1 1025.2 0.8
21/11:30am 8.7 2.6 4.7 76 1.8 W 26 33 14 18 1024.9 1025.0 0.8
21/11:00am 6.9 -0.6 3.7 80 1.4 WSW 32 43 17 23 1025.3 1025.4 0.6
21/10:30am 8.2 3.1 3.9 74 1.9 NW 20 33 11 18 1024.9 1025.0 0.6
21/10:00am 7.0 1.5 4.0 81 1.3 WNW 22 28 12 15 1024.7 1024.8 0.6
21/09:30am 6.7 -1.7 3.7 81 1.3 W 37 48 20 26 1024.4 1024.5 0.2
21/09:00am 7.6 -2.8 2.1 68 2.3 W 46 61 25 33 1023.4 1023.5 11.8
21/08:45am 8.0 -1.4 2.5 68 2.3 W 41 63 22 34 1023.3 1023.4 11.8
21/08:30am 7.3 -3.0 2.4 71 2.0 W 46 56 25 30 1023.3 1023.4 11.8
21/08:00am 7.9 -1.1 2.6 69 2.2 W 39 52 21 28 1022.4 1022.5 11.8
21/07:42am 6.8 -3.0 3.4 79 1.4 WSW 44 63 24 34 1022.3 1022.4 11.8
21/07:30am 7.5 -4.0 2.2 69 2.2 W 52 65 28 35 1022.0 1022.1 11.8
21/07:13am 8.3 -1.9 3.0 69 2.3 W 46 67 25 36 1021.5 1021.6 11.8
21/07:00am 8.2 -1.6 2.2 66 2.5 W 43 50 23 27 1021.2 1021.3 11.8
21/06:30am 7.9 0.1 2.6 69 2.2 W 33 52 18 28 1020.8 1020.9 11.8
21/06:00am 7.6 -2.2 3.5 75 1.7 W 44 69 24 37 1020.2 1020.2 11.8
21/05:35am 7.0 -2.1 3.8 80 1.4 W 41 59 22 32 1019.8 1019.8 11.6
21/05:30am 7.1 -2.6 4.1 81 1.3 WSW 44 59 24 32 1019.5 1019.5 11.6
21/05:00am 7.4 -1.8 3.5 76 1.7 W 41 50 22 27 1018.9 1019.0 11.6
21/04:30am 7.2 -2.8 4.5 83 1.2 W 46 59 25 32 1018.3 1018.4 11.6
21/04:00am 8.0 -3.6 4.0 76 1.7 W 54 72 29 39 1017.8 1017.9 11.2
21/03:30am 8.6 -1.2 3.2 69 2.3 WSW 44 63 24 34 1017.4 1017.5 11.2
21/03:05am 8.4 -2.5 3.3 70 2.2 W 50 69 27 37 1017.0 1017.1 11.2
21/03:00am 8.2 -3.1 3.5 72 2.0 W 52 69 28 37 1016.8 1016.9 11.2
21/02:41am 7.8 -1.7 4.0 77 1.6 W 43 69 23 37 1017.0 1017.1 11.2
21/02:30am 8.2 -0.7 3.1 70 2.2 W 39 50 21 27 1016.9 1017.0 11.0
21/02:00am 7.7 -2.9 3.2 73 1.9 W 48 74 26 40 1015.8 1015.9 11.0
21/01:30am 8.8 -1.6 2.2 63 2.8 W 46 65 25 35 1015.1 1015.2 11.0
21/01:09am 9.0 -2.2 1.7 60 3.0 W 50 70 27 38 1014.7 1014.8 11.0
21/01:00am 8.8 -2.3 2.4 64 2.7 W 50 61 27 33 1014.5 1014.6 11.0
21/12:30am 8.7 -1.8 3.9 72 2.1 W 48 69 26 37 1014.5 1014.6 11.0
21/12:25am 9.5 -1.1 3.3 65 2.7 W 48 67 26 36 1014.3 1014.4 11.0
21/12:00am 9.2 -0.1 3.2 66 2.6 W 41 52 22 28 1013.9 1014.0 11.0
 
Date/Time
EST
Temp
°C
App
Temp
°C
Dew
Point
°C
Rel
Hum
%
Delta-T
°C
Wind Press
QNH
hPa
Press
MSL
hPa
Rain since
9am
mm
Dir  Spd
km/h
Gust
km/h
Spd
kts
Gust
kts
20/11:33pm 8.9 -1.7 3.3 68 2.4 W 48 74 26 40 1013.1 1013.2 11.0
20/11:30pm 8.9 -0.7 4.5 74 1.9 W 44 57 24 31 1013.2 1013.3 11.0
20/11:00pm 8.5 -1.3 5.4 81 1.4 W 46 54 25 29 1012.8 1012.9 11.0
20/10:30pm 8.7 -2.3 4.9 77 1.7 W 52 70 28 38 1012.0 1012.1 10.6
20/10:17pm 9.2 -0.6 5.4 77 1.7 WNW 46 65 25 35 1011.4 1011.5 10.4
20/10:00pm 9.2 2.0 6.1 81 1.4 WNW 33 43 18 23 1012.2 1012.3 10.4
20/09:30pm 9.2 2.6 6.1 81 1.4 W 30 37 16 20 1011.8 1011.9 10.2
20/09:00pm 9.4 -0.9 6.3 81 1.4 W 50 61 27 33 1011.0 1011.1 10.0
20/08:31pm 9.8 -0.2 7.7 87 1.0 W 50 69 27 37 1010.1 1010.2 9.8
20/08:30pm 9.8 0.2 7.9 88 0.9 W 48 65 26 35 1010.1 1010.2 9.8
20/08:21pm 10.3 3.3 8.4 88 0.9 WSW 35 59 19 32 1010.1 1010.2 9.4
20/08:00pm 10.9 4.5 9.2 89 0.9 W 33 46 18 25 1009.7 1009.8 9.2
20/07:34pm 11.7 4.6 9.4 86 1.2 W 37 56 20 30 1009.3 1009.4 6.0
20/07:30pm 12.1 5.8 9.8 86 1.2 W 33 48 18 26 1009.3 1009.4 5.4
20/07:00pm 13.4 7.7 8.5 72 2.5 NW 28 39 15 21 1008.3 1008.4 0.0
20/06:30pm 14.7 9.9 7.5 62 3.6 NNW 22 44 12 24 1007.7 1007.8 0.0
20/06:00pm 14.6 9.7 6.7 59 3.9 NNW 22 30 12 16 1008.1 1008.2 0.0
20/05:30pm 14.5 9.8 6.1 57 4.0 NNW 20 32 11 17 1008.3 1008.4 0.0
20/05:00pm 14.7 9.2 6.0 56 4.2 NW 24 33 13 18 1008.7 1008.8 0.0
20/04:30pm 14.8 7.2 5.9 55 4.3 NW 35 57 19 31 1009.3 1009.4 0.0
20/04:00pm 14.9 6.8 5.4 53 4.5 NW 37 57 20 31 1009.8 1009.9 0.0
20/03:30pm 14.6 6.0 6.4 58 4.0 NW 41 59 22 32 1010.3 1010.4 0.0
20/03:00pm 15.1 6.0 6.1 55 4.3 NW 43 63 23 34 1010.5 1010.6 0.0
20/02:41pm 15.3 6.6 6.1 54 4.4 NW 41 69 22 37 1010.7 1010.8 0.0
20/02:30pm 15.5 8.7 7.0 57 4.2 NW 32 50 17 27 1011.2 1011.3 0.0
20/02:26pm 15.7 9.2 6.4 54 4.5 NW 30 50 16 27 1011.2 1011.3 0.0
20/02:00pm 15.0 9.3 8.3 64 3.4 NNW 28 59 15 32 1011.7 1011.8 0.0
20/01:57pm 15.3 8.4 7.1 58 4.0 NNW 33 59 18 32 1011.8 1011.9 0.0
20/01:51pm 15.5 6.7 5.7 52 4.7 NW 41 59 22 32 1011.8 1011.9 0.0
20/01:30pm 14.7 5.5 6.5 58 4.0 NW 44 61 24 33 1012.3 1012.4 0.0
20/01:00pm 14.6 4.2 7.6 63 3.5 NW 52 72 28 39 1012.8 1012.9 0.0
20/12:50pm 14.2 3.2 7.0 62 3.5 NW 54 76 29 41 1012.9 1013.0 0.0
20/12:40pm 14.1 4.4 7.4 64 3.3 NW 48 70 26 38 1013.0 1013.1 0.0
20/12:35pm 14.1 6.5 7.6 65 3.2 NW 37 70 20 38 1013.1 1013.2 0.0
20/12:30pm 13.8 7.6 8.0 68 2.9 NW 30 52 16 28 1013.4 1013.5 0.0
20/12:29pm 13.8 8.1 8.2 69 2.8 NW 28 52 15 28 1013.4 1013.5 0.0
20/12:00pm 13.7 9.5 8.1 69 2.8 N 20 30 11 16 1013.9 1014.0 0.0
20/11:30am 13.8 10.0 7.6 66 3.1 NNW 17 26 9 14 1014.3 1014.4 0.0
20/11:00am 13.7 8.6 7.7 67 3.0 NW 24 35 13 19 1015.5 1015.6 0.0
20/10:30am 13.7 10.2 7.2 65 3.2 NNW 15 26 8 14 1016.1 1016.2 0.0
20/10:00am 14.3 9.8 7.1 62 3.5 N 20 30 11 16 1016.0 1016.1 0.0
20/09:30am 14.2 9.2 6.6 60 3.7 NNW 22 33 12 18 1016.3 1016.4 0.0
20/09:00am 14.5 8.7 6.1 57 4.0 NW 26 37 14 20 1016.5 1016.6 0.0
20/08:30am 14.3 7.1 5.7 56 4.1 NW 33 43 18 23 1016.6 1016.7 0.0

Latest Capital City Observations: Canberra | Sydney | Melbourne | Brisbane | Adelaide | Perth | Hobart | Darwin

Other Formats:

Comma delimited format used in spreadsheet applications
http://www.bom.gov.au/fwo/IDT60901/IDT60901.95967.axf

JavaScript Object Notation format (JSON) in row-major order
http://www.bom.gov.au/fwo/IDT60901/IDT60901.95967.json